createdAt,value
2023-03-01T00:04:28.727Z,101675.25
2023-03-01T00:09:27.716Z,101677.03
2023-03-01T00:14:26.849Z,101674.59
2023-03-01T00:19:25.950Z,101671.09
2023-03-01T00:24:24.813Z,101672.66
2023-03-01T00:29:25.312Z,101668.41
2023-03-01T00:34:24.132Z,101667.00
2023-03-01T00:39:22.976Z,101665.19
2023-03-01T00:44:21.930Z,101658.22
2023-03-01T00:49:22.350Z,101650.22
2023-03-01T00:54:22.314Z,101640.72
2023-03-01T00:59:21.119Z,101643.88
2023-03-01T01:04:19.952Z,101650.63
2023-03-01T01:09:19.173Z,101647.25
2023-03-01T01:14:19.538Z,101647.13
2023-03-01T01:19:18.426Z,101646.00
2023-03-01T01:24:18.130Z,101639.22
2023-03-01T01:29:17.799Z,101630.53
2023-03-01T01:34:20.968Z,101628.72
2023-03-01T01:39:19.971Z,101626.56
2023-03-01T01:44:20.663Z,101615.00
2023-03-01T01:49:41.856Z,101623.66
2023-03-01T01:54:43.674Z,101636.16
2023-03-01T01:59:46.976Z,101631.50
2023-03-01T02:04:46.348Z,101624.75
2023-03-01T02:09:49.017Z,101610.19
2023-03-01T02:14:47.838Z,101613.69
2023-03-01T02:20:20.630Z,101606.78
2023-03-01T02:25:32.336Z,101597.56
2023-03-01T02:30:33.388Z,101576.44
2023-03-01T02:35:36.972Z,101587.44
2023-03-01T02:40:39.144Z,101585.16
2023-03-01T02:45:37.970Z,101587.44
2023-03-01T02:50:46.136Z,101587.09
2023-03-01T02:55:45.046Z,101576.38
2023-03-01T03:00:48.144Z,101577.44
2023-03-01T03:05:49.403Z,101573.00
2023-03-01T03:10:48.643Z,101559.28
2023-03-01T03:15:47.501Z,101563.53
2023-03-01T03:20:46.566Z,101566.75
2023-03-01T03:25:45.517Z,101562.19
2023-03-01T03:30:45.133Z,101556.75
2023-03-01T03:35:49.819Z,101553.84
2023-03-01T03:40:51.198Z,101549.88
2023-03-01T03:45:51.736Z,101555.59
2023-03-01T03:50:53.838Z,101552.41
2023-03-01T03:55:53.641Z,101549.06
2023-03-01T04:00:54.918Z,101554.72
2023-03-01T04:05:54.043Z,101558.09
2023-03-01T04:10:58.431Z,101567.63
2023-03-01T04:15:57.332Z,101562.66
2023-03-01T04:20:56.448Z,101561.88
2023-03-01T04:25:58.082Z,101556.38
2023-03-01T04:30:59.020Z,101553.13
2023-03-01T04:35:58.767Z,101544.72
2023-03-01T04:40:57.630Z,101552.31
2023-03-01T04:46:03.886Z,101568.25
2023-03-01T04:51:02.943Z,101556.16
2023-03-01T04:56:01.780Z,101555.06
2023-03-01T05:01:00.677Z,101556.63
2023-03-01T05:06:00.752Z,101562.25
2023-03-01T05:10:59.658Z,101566.38
2023-03-01T05:16:01.557Z,101556.84
2023-03-01T05:21:12.713Z,101546.25
2023-03-01T05:26:27.456Z,101549.09
2023-03-01T05:31:32.650Z,101541.00
2023-03-01T05:36:31.743Z,101525.47
2023-03-01T05:41:31.158Z,101522.16
2023-03-01T05:46:30.750Z,101536.19
2023-03-01T05:51:30.377Z,101542.06
2023-03-01T05:56:30.585Z,101544.28
2023-03-01T06:01:30.360Z,101545.56
2023-03-01T06:06:39.654Z,101555.19
2023-03-01T06:11:38.911Z,101551.97
2023-03-01T06:16:37.697Z,101554.25
2023-03-01T06:21:36.653Z,101553.34
2023-03-01T06:26:35.416Z,101560.50
2023-03-01T06:31:34.503Z,101564.53
2023-03-01T06:36:33.529Z,101562.72
2023-03-01T06:41:33.757Z,101574.31
2023-03-01T06:46:32.974Z,101573.50
2023-03-01T06:51:32.143Z,101570.47
2023-03-01T06:56:32.265Z,101567.34
2023-03-01T07:01:32.347Z,101566.72
2023-03-01T07:06:31.579Z,101564.03
2023-03-01T07:11:30.661Z,101557.72
2023-03-01T07:16:29.835Z,101553.13
2023-03-01T07:21:28.931Z,101557.53
2023-03-01T07:26:27.713Z,101553.13
2023-03-01T07:31:28.789Z,101547.19
2023-03-01T07:36:27.712Z,101554.03
2023-03-01T07:41:26.691Z,101547.22
2023-03-01T07:46:25.560Z,101545.53
2023-03-01T07:51:24.516Z,101535.16
2023-03-01T07:56:23.338Z,101529.19
2023-03-01T08:01:22.930Z,101532.38
2023-03-01T08:06:21.826Z,101521.63
2023-03-01T08:11:20.711Z,101503.13
2023-03-01T08:16:19.617Z,101493.03
2023-03-01T08:21:19.264Z,101500.66
2023-03-01T08:26:20.289Z,101497.94
2023-03-01T08:31:25.438Z,101501.69
2023-03-01T08:36:32.855Z,101499.41
2023-03-01T08:41:32.255Z,101492.84
2023-03-01T08:46:37.805Z,101496.69
2023-03-01T08:51:37.943Z,101495.22
2023-03-01T08:56:36.738Z,101484.44
2023-03-01T09:01:35.673Z,101490.41
2023-03-01T09:06:35.305Z,101482.63
2023-03-01T09:11:34.298Z,101482.47
2023-03-01T09:16:37.025Z,101469.81
2023-03-01T09:21:40.532Z,101455.41
2023-03-01T09:26:39.647Z,101449.34
2023-03-01T09:31:38.953Z,101445.72
2023-03-01T09:36:38.367Z,101438.75
2023-03-01T09:42:03.449Z,101444.31
2023-03-01T09:47:03.419Z,101439.88
2023-03-01T09:52:20.295Z,101441.00
2023-03-01T09:57:27.382Z,101441.00
2023-03-01T10:02:42.288Z,101443.41
2023-03-01T10:07:47.097Z,101443.34
2023-03-01T10:12:46.816Z,101436.03
2023-03-01T10:18:01.313Z,101437.69
2023-03-01T10:23:01.211Z,101429.34
2023-03-01T10:28:18.030Z,101437.84
2023-03-01T10:33:36.462Z,101430.03
2023-03-01T10:38:55.469Z,101424.00
2023-03-01T10:44:00.587Z,101417.41
2023-03-01T10:49:23.597Z,101404.59
2023-03-01T10:54:33.514Z,101394.94
2023-03-01T10:59:35.369Z,101386.78
2023-03-01T11:04:34.228Z,101382.59
2023-03-01T11:09:40.965Z,101371.69
2023-03-01T11:14:48.383Z,101368.91
2023-03-01T11:20:08.454Z,101355.25
2023-03-01T11:25:14.464Z,101363.91
2023-03-01T11:30:28.649Z,101359.94
2023-03-01T11:35:29.858Z,101360.13
2023-03-01T11:40:31.493Z,101360.78
2023-03-01T11:45:44.257Z,101363.56
2023-03-01T11:50:48.227Z,101363.94
2023-03-01T11:55:54.615Z,101357.28
2023-03-01T12:01:26.074Z,101351.63
2023-03-01T12:06:47.397Z,101339.50
2023-03-01T12:12:24.442Z,101337.91
2023-03-01T12:17:41.295Z,101328.94
2023-03-01T12:23:14.546Z,101322.63
2023-03-01T12:28:22.946Z,101326.25
2023-03-01T12:33:40.613Z,101316.72
2023-03-01T12:39:02.249Z,101303.81
2023-03-01T12:44:38.727Z,101297.91
2023-03-01T12:49:42.993Z,101302.59
2023-03-01T12:54:42.769Z,101296.25
2023-03-01T12:59:58.850Z,101288.81
2023-03-01T13:05:22.441Z,101283.69
2023-03-01T13:10:29.359Z,101288.34
2023-03-01T13:15:31.810Z,101278.44
2023-03-01T13:20:43.028Z,101276.41
2023-03-01T13:26:00.220Z,101279.91
2023-03-01T13:30:59.883Z,101280.81
2023-03-01T13:35:59.905Z,101282.97
2023-03-01T13:41:00.532Z,101264.00
2023-03-01T13:46:00.577Z,101258.25
2023-03-01T13:51:02.299Z,101266.03
2023-03-01T13:56:25.137Z,101269.09
2023-03-01T14:01:34.161Z,101264.56
2023-03-01T14:06:36.973Z,101251.25
2023-03-01T14:11:39.103Z,101239.53
2023-03-01T14:17:06.005Z,101251.25
2023-03-01T14:22:05.390Z,101235.97
2023-03-01T14:27:04.398Z,101232.84
2023-03-01T14:32:20.606Z,101226.41
2023-03-01T14:37:20.885Z,101228.78
2023-03-01T14:42:22.742Z,101229.25
2023-03-01T14:47:33.435Z,101223.44
2023-03-01T14:52:41.130Z,101218.09
2023-03-01T14:57:44.651Z,101206.75
2023-03-01T15:02:44.101Z,101215.69
2023-03-01T15:07:50.082Z,101204.66
2023-03-01T15:12:49.293Z,101217.97
2023-03-01T15:17:56.310Z,101202.69
2023-03-01T15:22:56.868Z,101205.28
2023-03-01T15:27:57.771Z,101200.66
2023-03-01T15:33:27.941Z,101207.53
2023-03-01T15:38:29.759Z,101198.28
2023-03-01T15:43:38.655Z,101201.34
2023-03-01T15:48:37.528Z,101186.63
2023-03-01T15:53:41.399Z,101192.09
2023-03-01T15:58:45.627Z,101189.31
2023-03-01T16:03:45.769Z,101178.13
2023-03-01T16:08:44.655Z,101178.94
2023-03-01T16:13:43.946Z,101174.94
2023-03-01T16:18:47.702Z,101183.25
2023-03-01T16:23:47.043Z,101194.47
2023-03-01T16:28:46.709Z,101199.84
2023-03-01T16:33:50.454Z,101199.03
2023-03-01T16:38:49.545Z,101199.88
2023-03-01T16:43:51.049Z,101199.00
2023-03-01T16:48:50.321Z,101198.31
2023-03-01T16:53:50.103Z,101195.97
2023-03-01T16:58:49.377Z,101193.38
2023-03-01T17:03:50.368Z,101191.44
2023-03-01T17:08:49.375Z,101198.72
2023-03-01T17:13:49.292Z,101203.50
2023-03-01T17:18:48.635Z,101203.38
2023-03-01T17:23:48.151Z,101198.84
2023-03-01T17:28:51.872Z,101210.72
2023-03-01T17:33:51.261Z,101214.75
2023-03-01T17:38:50.921Z,101222.59
2023-03-01T17:43:49.847Z,101233.00
2023-03-01T17:48:49.800Z,101224.75
2023-03-01T17:53:48.598Z,101227.69
2023-03-01T17:58:47.511Z,101226.25
2023-03-01T18:03:47.554Z,101217.53
2023-03-01T18:08:47.085Z,101228.13
2023-03-01T18:13:47.727Z,101228.88
2023-03-01T18:18:46.960Z,101233.75
2023-03-01T18:23:45.861Z,101219.88
2023-03-01T18:28:48.083Z,101225.59
2023-03-01T18:33:47.440Z,101211.25
2023-03-01T18:38:46.649Z,101209.16
2023-03-01T18:43:45.592Z,101217.44
2023-03-01T18:48:44.997Z,101220.91
2023-03-01T18:53:44.491Z,101223.09
2023-03-01T18:58:43.826Z,101219.25
2023-03-01T19:03:43.501Z,101217.88
2023-03-01T19:08:44.480Z,101218.38
2023-03-01T19:13:47.762Z,101215.22
2023-03-01T19:18:51.657Z,101216.22
2023-03-01T19:23:50.372Z,101222.63
2023-03-01T19:28:49.516Z,101219.72
2023-03-01T19:33:48.457Z,101227.59
2023-03-01T19:38:48.056Z,101215.56
2023-03-01T19:43:47.465Z,101211.59
2023-03-01T19:48:46.647Z,101202.16
2023-03-01T19:53:46.568Z,101211.88
2023-03-01T19:58:50.142Z,101214.72
2023-03-01T20:03:49.010Z,101216.44
2023-03-01T20:08:49.347Z,101223.16
2023-03-01T20:13:48.246Z,101232.88
2023-03-01T20:18:47.271Z,101219.00
2023-03-01T20:23:46.838Z,101219.69
2023-03-01T20:28:50.767Z,101221.94
2023-03-01T20:33:49.888Z,101225.34
2023-03-01T20:38:48.843Z,101223.03
2023-03-01T20:43:54.916Z,101213.94
2023-03-01T20:48:54.260Z,101205.06
2023-03-01T20:53:53.311Z,101198.44
2023-03-01T20:58:52.215Z,101209.44
2023-03-01T21:03:51.897Z,101214.34
2023-03-01T21:08:51.870Z,101211.44
2023-03-01T21:13:54.736Z,101209.63
2023-03-01T21:18:54.163Z,101198.47
2023-03-01T21:23:54.437Z,101200.41
2023-03-01T21:28:58.814Z,101197.34
2023-03-01T21:33:59.944Z,101192.53
2023-03-01T21:39:01.791Z,101198.22
2023-03-01T21:44:03.229Z,101197.44
2023-03-01T21:49:04.693Z,101195.38
2023-03-01T21:54:03.968Z,101186.81
2023-03-01T21:59:02.956Z,101183.72
2023-03-01T22:04:03.423Z,101178.13
2023-03-01T22:09:18.874Z,101178.38
2023-03-01T22:14:19.345Z,101168.88
2023-03-01T22:19:19.127Z,101164.22
2023-03-01T22:24:20.627Z,101157.03
2023-03-01T22:29:26.743Z,101164.75
2023-03-01T22:34:26.049Z,101159.69
2023-03-01T22:39:25.075Z,101171.69
2023-03-01T22:44:24.542Z,101170.09
2023-03-01T22:49:23.635Z,101171.25
2023-03-01T22:54:22.699Z,101167.50
2023-03-01T22:59:25.857Z,101158.44
2023-03-01T23:04:24.938Z,101164.72
2023-03-01T23:09:30.906Z,101160.66
2023-03-01T23:14:31.525Z,101166.06
2023-03-01T23:19:31.097Z,101170.81
2023-03-01T23:24:33.077Z,101164.72
2023-03-01T23:29:32.665Z,101164.72
2023-03-01T23:34:31.544Z,101171.94
2023-03-01T23:39:32.083Z,101169.25
2023-03-01T23:44:31.143Z,101164.63
2023-03-01T23:49:30.364Z,101162.38
2023-03-01T23:54:29.326Z,101170.03
2023-03-01T23:59:28.693Z,101165.59
